Nearby METAR Reports

EGNX - East Midlands, United Kingdom
Distance: S 18mi, 28km
Updated: 25/02/2020 02:50
Clear
Clear
 Wind from WSW
Wind: WSW 18 mph , 30 km/h
Temperature: 4°C
Wind Chill: -1°C
Dew Point: 0°C
Humidity: 75%
Barometer: 1001 hPa
Summary: Clear
Visibility: greater than 7 miles , 10 km
2020/02/25 02:50 EGNX 250250Z 25016KT CAVOK 04/00 Q1001
EGCN - Doncaster Sheffi, United Kingdom
Distance: NNE 31mi, 50km
Updated: 25/02/2020 02:50
Partly cloudy
Partly cloudy
 Wind from WSW
Wind: WSW 13 mph , 20 km/h
Temperature: 5°C
Wind Chill: 1°C
Dew Point: 0°C
Humidity: 70%
Barometer: 1000 hPa
Clouds: Partly cloudy
Visibility: 6 miles , 10 km
Cloud details: Few Clouds 975 m
Partly cloudy 1372 m
2020/02/25 02:50 EGCN 250250Z AUTO 24011KT 9999 FEW032/// SCT045/// 05/00 Q1000
EGYE - Barkston Heath R, United Kingdom
Distance: ESE 31mi, 50km
Updated: 24/02/2020 10:50
NOT Current
Overcast
Overcast
 Wind from SSW
Wind: SSW 28 mph , 44 km/h, Gust: 39 mph , 63 km/h
Barometer: 1001 hPa
Clouds: Overcast
Visibility: 6 miles , 10 km
Cloud details: Partly cloudy 305 m
Overcast 1524 m
2020/02/24 10:50 EGYE 241050Z 21024G34KT 9999 SCT010 OVC050 ///// Q1001 RMK GRN
 
EGXW - Waddington Raf, United Kingdom
Distance: ENE 33mi, 53km
Updated: 25/02/2020 02:50
Clear
Clear
 Wind from WSW
Wind: WSW 12 mph , 19 km/h
Temperature: 4°C
Wind Chill: 0°C
Dew Point: 0°C
Humidity: 75%
Barometer: 999 hPa
Clouds: Clear
Visibility: 6 miles , 10 km
2020/02/25 02:50 EGXW 250250Z AUTO 25010KT 9999 NCD 04/00 Q0999
EGYD - Cranwell Raf, United Kingdom
Distance: E 33mi, 53km
Updated: 25/02/2020 02:50
Clear
Clear
 Wind from W
Wind: W 18 mph , 30 km/h
Temperature: 4°C
Wind Chill: -1°C
Dew Point: 1°C
Humidity: 81%
Barometer: 1000 hPa
Clouds: Clear
Visibility: 6 miles , 10 km
2020/02/25 02:50 EGYD 250250Z AUTO 27016KT 9999 // NCD 04/01 Q1000
EGXP - Scampton Raf, United Kingdom
Distance: ENE 35mi, 56km
Updated: 25/02/2020 02:50
Clear
Clear
 Wind from W
Wind: W 15 mph , 24 km/h
Temperature: 3°C
Wind Chill: -2°C
Dew Point: 1°C
Humidity: 87%
Barometer: 999 hPa
Clouds: Clear
Visibility: 6 miles , 10 km
2020/02/25 02:50 EGXP 250250Z AUTO 26013KT 9999 // NCD 03/01 Q0999
 
EGCC - Manchester Intl, United Kingdom
Distance: WNW 45mi, 72km
Updated: 25/02/2020 02:50
Light rain, Thunderstorm
Light rain, Thunderstorm
 Wind from WSW
Wind: WSW 10 mph , 17 km/h, Gust: 23 mph , 37 km/h
Temperature: 4°C
Wind Chill: 0°C
Dew Point: 1°C
Humidity: 81%
Barometer: 1001 hPa
Summary: Light rain
Clouds: Thunderstorm
Visibility: 5 miles , 8 km
Cloud details: Partly cloudy 457 m
Mostly cloudy 610 m
Mostly cloudy 853 m
2020/02/25 02:50 EGCC 250250Z AUTO 25009G20KT 8000 -RA SCT015/// BKN020/// BKN028/// //////CB 04/01 Q1001 NOSIG
EGBB - Birmingham Airpo, United Kingdom
Distance: SSW 46mi, 74km
Updated: 25/02/2020 03:20
Partly cloudy
Partly cloudy
 Wind from W
Wind: W 10 mph , 17 km/h
Temperature: 4°C
Wind Chill: 0°C
Dew Point: 1°C
Humidity: 81%
Clouds: Partly cloudy
Visibility: 6 miles , 10 km
Cloud details: Partly cloudy 1006 m
2020/02/25 03:20 EGBB 250320Z 26009KT 9999 SCT033 04/01
EGXC - Coningsby Raf, United Kingdom
Distance: E 47mi, 75km
Updated: 25/02/2020 02:50
Few Clouds
Few Clouds
 Wind from W
Wind: W 16 mph , 26 km/h
Temperature: 4°C
Wind Chill: -1°C
Dew Point: 1°C
Humidity: 81%
Barometer: 1000 hPa
Clouds: Few Clouds
Visibility: 6 miles , 10 km
Cloud details: Few Clouds 914 m
2020/02/25 02:50 EGXC 250250Z 26014KT 9999 FEW030 04/01 Q1000 RMK BLU
 
EGXT - Wittering Raf, United Kingdom
Distance: SE 47mi, 75km
Updated: 25/02/2020 02:50

 Wind from WSW
Wind: WSW 12 mph , 19 km/h
Temperature: 4°C
Wind Chill: 0°C
Dew Point: 1°C
Humidity: 81%
Barometer: 1001 hPa
2020/02/25 02:50 EGXT 250250Z AUTO 25010KT //// // ///////// 04/01 Q1001
EGNJ - Humberside, United Kingdom
Distance: NE 52mi, 83km
Updated: 25/02/2020 03:20
Mostly cloudy
Mostly cloudy
 Wind from WSW
Wind: WSW 13 mph , 20 km/h
Temperature: 5°C
Wind Chill: 1°C
Dew Point: 1°C
Humidity: 76%
Barometer: 998 hPa
Clouds: Mostly cloudy
Visibility: 6 miles , 10 km
Cloud details: Mostly cloudy 823 m
2020/02/25 03:20 EGNJ 250320Z AUTO 24011KT 9999 BKN027/// 05/01 Q0998
EGWC - Cosford Raf, United Kingdom
Distance: SW 52mi, 83km
Updated: 24/02/2020 12:50
NOT Current
Mostly cloudy
Mostly cloudy
 Wind from WSW
Wind: WSW 17 mph , 28 km/h, Gust: 36 mph , 57 km/h
Temperature: 13°C
Dew Point: 9°C
Humidity: 77%
Barometer: 1000 hPa
Clouds: Mostly cloudy
Visibility: 6 miles , 10 km
Cloud details: Partly cloudy 305 m
Mostly cloudy 701 m
2020/02/24 12:50 EGWC 241250Z 24015G31KT 9999 SCT010 BKN023 13/09 Q1000 RMK GRN
 
EGNM - Leeds And Bradfo, United Kingdom
Distance: NNW 57mi, 91km
Updated: 25/02/2020 03:20
Light rain, Showers, Snow, Mostly cloudy
Light rain, Showers, Snow, Mostly cloudy
 Wind from W
Wind: W 20 mph , 31 km/h, Gust: 31 mph , 50 km/h
Temperature: 2°C
Wind Chill: -4°C
Dew Point: 1°C
Humidity: 93%
Summary: Light rain, Showers, Snow
Clouds: Mostly cloudy
Visibility: 6 miles , 10 km
Cloud details: Mostly cloudy 305 m
2020/02/25 03:20 EGNM 250320Z 26017G27KT 9999 -SHRASN BKN010 02/01
EGOS - Shawbury Raf, United Kingdom
Distance: WSW 60mi, 97km
Updated: 25/02/2020 02:50
Partly cloudy
Partly cloudy
 Wind from WSW
Wind: WSW 10 mph , 17 km/h
Temperature: 4°C
Wind Chill: 0°C
Dew Point: 2°C
Humidity: 87%
Barometer: 1001 hPa
Clouds: Partly cloudy
Visibility: 6 miles , 10 km
Cloud details: Few Clouds 640 m
Partly cloudy 914 m
2020/02/25 02:50 EGOS 250250Z AUTO 24009KT 9999 FEW021/// SCT030/// 04/02 Q1001
EGYH - Holbeach (aut), United Kingdom
Distance: ESE 62mi, 99km
Updated: 24/02/2020 14:50
NOT Current
Partly cloudy
Partly cloudy
 Wind from WSW
Wind: WSW 28 mph , 44 km/h
Temperature: 13°C
Dew Point: 10°C
Humidity: 82%
Barometer: 998 hPa
Clouds: Partly cloudy
Visibility: 6 miles , 10 km
Cloud details: Few Clouds 457 m
Partly cloudy 914 m
2020/02/24 14:50 EGYH 241450Z 25024KT 9999 FEW015 SCT030 13/10 Q0998 RMK BLU
 
EGXV - Leconfield (aut), United Kingdom
Distance: NNE 65mi, 105km
Updated: 25/02/2020 02:50
Clear
Clear
 Wind from W
Wind: W 15 mph , 24 km/h
Temperature: 4°C
Wind Chill: -1°C
Dew Point: 1°C
Humidity: 81%
Barometer: 997 hPa
Clouds: Clear
Visibility: 6 miles , 10 km
2020/02/25 02:50 EGXV 250250Z AUTO 26013KT 9999 NCD 04/01 Q0997
EGXS - Donna Nook Raf, United Kingdom
Distance: ENE 66mi, 106km
Updated: 25/02/2020 02:50
Clear
Clear
 Wind from SW
Wind: SW 18 mph , 30 km/h
Temperature: 4°C
Wind Chill: -1°C
Dew Point: 1°C
Humidity: 81%
Barometer: 998 hPa
Clouds: Clear
Visibility: 6 miles , 10 km
2020/02/25 02:50 EGXS 250250Z AUTO 23016KT 9999 // NCD 04/01 Q0998
EGGP - Liverpool Airpor, United Kingdom
Distance: WNW 67mi, 107km
Updated: 25/02/2020 02:50
Light rain, Showers, Mostly cloudy
Light rain, Showers, Mostly cloudy
 Wind from WSW
Wind: WSW 12 mph , 19 km/h
Temperature: 5°C
Wind Chill: 1°C
Dew Point: 3°C
Humidity: 87%
Barometer: 1000 hPa
Summary: Light rain, Showers
Clouds: Mostly cloudy
Visibility: 6 miles , 10 km
Cloud details: Partly cloudy 732 m
Mostly cloudy 914 m
2020/02/25 02:50 EGGP 250250Z 25010KT 9999 -SHRA SCT024 BKN030 05/03 Q1000 RERA
 
EGXU - Linton-On-Ouse R, United Kingdom
Distance: N 68mi, 109km
Updated: 25/02/2020 02:50
Clear
Clear
 Wind from W
Wind: W 18 mph , 30 km/h, Gust: 30 mph , 48 km/h
Temperature: 4°C
Wind Chill: -1°C
Dew Point: 1°C
Humidity: 81%
Barometer: 997 hPa
Clouds: Clear
Visibility: 6 miles , 10 km
2020/02/25 02:50 EGXU 250250Z AUTO 28016G26KT 9999 NCD 04/01 Q0997
EGNR - Hawarden (aut), United Kingdom
Distance: W 70mi, 112km
Updated: 24/02/2020 20:50
NOT Current
Few Clouds
Few Clouds
 Wind from W
Wind: W 16 mph , 26 km/h, Gust: 28 mph , 44 km/h
Temperature: 7°C
Wind Chill: 3°C
Dew Point: 1°C
Humidity: 66%
Barometer: 1003 hPa
Clouds: Few Clouds
Visibility: 6 miles , 10 km
Cloud details: Few Clouds 1219 m
2020/02/24 20:50 EGNR 242050Z 28014G24KT 250V310 9999 FEW040 07/01 Q1003